sensor_id;sensor_type;location;lat;lon;timestamp;P1;durP1;ratioP1;P2;durP2;ratioP2
80199;SDS011;69520;44.900;-0.764;2023-07-30T00:01:17;5.57;;;1.40;;
80199;SDS011;69520;44.900;-0.764;2023-07-30T00:03:43;6.35;;;1.90;;
80199;SDS011;69520;44.900;-0.764;2023-07-30T00:06:09;5.90;;;1.60;;
80199;SDS011;69520;44.900;-0.764;2023-07-30T00:08:35;6.82;;;1.70;;
80199;SDS011;69520;44.900;-0.764;2023-07-30T00:11:01;6.75;;;1.80;;
80199;SDS011;69520;44.900;-0.764;2023-07-30T00:13:27;8.18;;;1.83;;
80199;SDS011;69520;44.900;-0.764;2023-07-30T00:15:54;6.65;;;1.92;;
80199;SDS011;69520;44.900;-0.764;2023-07-30T00:18:20;7.87;;;2.07;;
80199;SDS011;69520;44.900;-0.764;2023-07-30T00:20:46;8.10;;;1.63;;
80199;SDS011;69520;44.900;-0.764;2023-07-30T00:23:12;7.30;;;1.70;;
80199;SDS011;69520;44.900;-0.764;2023-07-30T00:25:38;8.05;;;1.80;;
80199;SDS011;69520;44.900;-0.764;2023-07-30T00:28:04;6.28;;;1.98;;
80199;SDS011;69520;44.900;-0.764;2023-07-30T00:30:30;7.33;;;1.77;;
80199;SDS011;69520;44.900;-0.764;2023-07-30T00:32:56;6.00;;;1.55;;
80199;SDS011;69520;44.900;-0.764;2023-07-30T00:35:22;7.25;;;1.70;;
80199;SDS011;69520;44.900;-0.764;2023-07-30T00:37:48;7.43;;;1.85;;
80199;SDS011;69520;44.900;-0.764;2023-07-30T00:40:14;7.55;;;1.90;;
80199;SDS011;69520;44.900;-0.764;2023-07-30T00:42:40;9.80;;;2.10;;
80199;SDS011;69520;44.900;-0.764;2023-07-30T00:45:06;8.40;;;1.92;;
80199;SDS011;69520;44.900;-0.764;2023-07-30T00:47:32;8.32;;;1.75;;
80199;SDS011;69520;44.900;-0.764;2023-07-30T00:49:58;6.75;;;2.20;;
80199;SDS011;69520;44.900;-0.764;2023-07-30T00:52:25;7.78;;;1.90;;
80199;SDS011;69520;44.900;-0.764;2023-07-30T00:54:51;8.47;;;2.20;;
80199;SDS011;69520;44.900;-0.764;2023-07-30T00:57:18;6.15;;;1.80;;
80199;SDS011;69520;44.900;-0.764;2023-07-30T00:59:44;7.47;;;1.60;;
80199;SDS011;69520;44.900;-0.764;2023-07-30T01:02:10;6.70;;;1.77;;
80199;SDS011;69520;44.900;-0.764;2023-07-30T01:04:37;6.65;;;1.70;;
80199;SDS011;69520;44.900;-0.764;2023-07-30T01:07:04;10.33;;;2.17;;
80199;SDS011;69520;44.900;-0.764;2023-07-30T01:09:31;8.82;;;1.75;;
80199;SDS011;69520;44.900;-0.764;2023-07-30T01:11:57;6.78;;;1.75;;
80199;SDS011;69520;44.900;-0.764;2023-07-30T01:14:23;8.52;;;2.20;;
80199;SDS011;69520;44.900;-0.764;2023-07-30T01:16:51;7.15;;;1.52;;
80199;SDS011;69520;44.900;-0.764;2023-07-30T01:19:17;6.93;;;1.70;;
80199;SDS011;69520;44.900;-0.764;2023-07-30T01:21:43;7.13;;;1.60;;
80199;SDS011;69520;44.900;-0.764;2023-07-30T01:24:09;6.32;;;1.73;;
80199;SDS011;69520;44.900;-0.764;2023-07-30T01:26:40;8.77;;;2.17;;
80199;SDS011;69520;44.900;-0.764;2023-07-30T01:29:17;9.88;;;2.00;;
80199;SDS011;69520;44.900;-0.764;2023-07-30T01:31:47;6.43;;;1.60;;
80199;SDS011;69520;44.900;-0.764;2023-07-30T01:34:16;6.75;;;1.95;;
80199;SDS011;69520;44.900;-0.764;2023-07-30T01:36:43;7.90;;;1.85;;
80199;SDS011;69520;44.900;-0.764;2023-07-30T01:39:11;8.25;;;2.35;;
80199;SDS011;69520;44.900;-0.764;2023-07-30T01:41:38;7.07;;;2.15;;
80199;SDS011;69520;44.900;-0.764;2023-07-30T01:44:04;8.77;;;2.27;;
80199;SDS011;69520;44.900;-0.764;2023-07-30T01:46:30;7.35;;;1.80;;
80199;SDS011;69520;44.900;-0.764;2023-07-30T01:48:56;7.50;;;1.85;;
80199;SDS011;69520;44.900;-0.764;2023-07-30T01:51:22;7.68;;;1.95;;
80199;SDS011;69520;44.900;-0.764;2023-07-30T01:53:48;7.45;;;1.58;;
80199;SDS011;69520;44.900;-0.764;2023-07-30T01:56:14;6.93;;;1.90;;
80199;SDS011;69520;44.900;-0.764;2023-07-30T01:58:40;6.03;;;1.60;;
80199;SDS011;69520;44.900;-0.764;2023-07-30T02:01:06;10.25;;;1.80;;
80199;SDS011;69520;44.900;-0.764;2023-07-30T02:03:32;10.35;;;2.10;;
80199;SDS011;69520;44.900;-0.764;2023-07-30T02:05:58;6.70;;;2.13;;
80199;SDS011;69520;44.900;-0.764;2023-07-30T02:08:25;7.43;;;1.77;;
80199;SDS011;69520;44.900;-0.764;2023-07-30T02:10:54;9.90;;;2.33;;
80199;SDS011;69520;44.900;-0.764;2023-07-30T02:13:20;7.95;;;1.80;;
80199;SDS011;69520;44.900;-0.764;2023-07-30T02:15:46;7.18;;;1.77;;
80199;SDS011;69520;44.900;-0.764;2023-07-30T02:18:12;8.40;;;2.00;;
80199;SDS011;69520;44.900;-0.764;2023-07-30T02:20:38;6.63;;;1.90;;
80199;SDS011;69520;44.900;-0.764;2023-07-30T02:23:04;8.77;;;2.00;;
80199;SDS011;69520;44.900;-0.764;2023-07-30T02:25:30;8.45;;;1.90;;
80199;SDS011;69520;44.900;-0.764;2023-07-30T02:27:58;10.43;;;3.17;;
80199;SDS011;69520;44.900;-0.764;2023-07-30T02:30:24;9.88;;;2.38;;
80199;SDS011;69520;44.900;-0.764;2023-07-30T02:32:50;9.27;;;2.30;;
80199;SDS011;69520;44.900;-0.764;2023-07-30T02:35:16;9.23;;;2.40;;
80199;SDS011;69520;44.900;-0.764;2023-07-30T02:37:42;8.55;;;2.28;;
80199;SDS011;69520;44.900;-0.764;2023-07-30T02:40:09;6.97;;;2.30;;
80199;SDS011;69520;44.900;-0.764;2023-07-30T02:42:35;7.53;;;2.20;;
80199;SDS011;69520;44.900;-0.764;2023-07-30T02:45:01;7.97;;;2.03;;
80199;SDS011;69520;44.900;-0.764;2023-07-30T02:47:27;8.98;;;2.50;;
80199;SDS011;69520;44.900;-0.764;2023-07-30T02:49:53;8.82;;;2.08;;
80199;SDS011;69520;44.900;-0.764;2023-07-30T02:52:19;9.40;;;2.10;;
80199;SDS011;69520;44.900;-0.764;2023-07-30T02:54:45;6.32;;;1.70;;
80199;SDS011;69520;44.900;-0.764;2023-07-30T02:57:11;7.83;;;2.30;;
80199;SDS011;69520;44.900;-0.764;2023-07-30T02:59:38;7.53;;;1.92;;
80199;SDS011;69520;44.900;-0.764;2023-07-30T03:02:05;8.30;;;2.35;;
80199;SDS011;69520;44.900;-0.764;2023-07-30T03:04:32;7.72;;;1.98;;
80199;SDS011;69520;44.900;-0.764;2023-07-30T03:06:58;7.00;;;2.13;;
80199;SDS011;69520;44.900;-0.764;2023-07-30T03:09:24;7.23;;;1.80;;
80199;SDS011;69520;44.900;-0.764;2023-07-30T03:11:50;6.80;;;2.22;;
80199;SDS011;69520;44.900;-0.764;2023-07-30T03:14:16;8.55;;;2.40;;
80199;SDS011;69520;44.900;-0.764;2023-07-30T03:16:45;8.52;;;2.20;;
80199;SDS011;69520;44.900;-0.764;2023-07-30T03:19:11;10.75;;;2.22;;
80199;SDS011;69520;44.900;-0.764;2023-07-30T03:21:37;7.27;;;2.00;;
80199;SDS011;69520;44.900;-0.764;2023-07-30T03:24:03;7.15;;;2.38;;
80199;SDS011;69520;44.900;-0.764;2023-07-30T03:26:30;7.80;;;2.40;;
80199;SDS011;69520;44.900;-0.764;2023-07-30T03:28:56;7.43;;;2.38;;
80199;SDS011;69520;44.900;-0.764;2023-07-30T03:31:22;9.75;;;2.40;;
80199;SDS011;69520;44.900;-0.764;2023-07-30T03:33:48;8.40;;;2.10;;
80199;SDS011;69520;44.900;-0.764;2023-07-30T03:36:14;9.32;;;2.50;;
80199;SDS011;69520;44.900;-0.764;2023-07-30T03:38:40;7.43;;;2.20;;
80199;SDS011;69520;44.900;-0.764;2023-07-30T03:41:07;6.78;;;2.17;;
80199;SDS011;69520;44.900;-0.764;2023-07-30T03:43:33;8.38;;;2.60;;
80199;SDS011;69520;44.900;-0.764;2023-07-30T03:45:59;8.13;;;2.13;;
80199;SDS011;69520;44.900;-0.764;2023-07-30T03:48:25;8.60;;;2.28;;
80199;SDS011;69520;44.900;-0.764;2023-07-30T03:50:52;7.32;;;2.42;;
80199;SDS011;69520;44.900;-0.764;2023-07-30T03:53:18;7.70;;;2.53;;
80199;SDS011;69520;44.900;-0.764;2023-07-30T03:55:44;6.65;;;1.80;;
80199;SDS011;69520;44.900;-0.764;2023-07-30T03:58:10;7.07;;;1.93;;
80199;SDS011;69520;44.900;-0.764;2023-07-30T04:00:36;7.35;;;2.20;;
80199;SDS011;69520;44.900;-0.764;2023-07-30T04:03:02;8.68;;;2.20;;
80199;SDS011;69520;44.900;-0.764;2023-07-30T04:05:29;7.57;;;2.45;;
80199;SDS011;69520;44.900;-0.764;2023-07-30T04:07:57;7.50;;;2.13;;
80199;SDS011;69520;44.900;-0.764;2023-07-30T04:10:23;6.87;;;2.47;;
80199;SDS011;69520;44.900;-0.764;2023-07-30T04:12:49;7.43;;;2.28;;
80199;SDS011;69520;44.900;-0.764;2023-07-30T04:15:15;9.75;;;2.47;;
80199;SDS011;69520;44.900;-0.764;2023-07-30T04:17:41;11.98;;;2.80;;
80199;SDS011;69520;44.900;-0.764;2023-07-30T04:20:08;7.28;;;2.40;;
80199;SDS011;69520;44.900;-0.764;2023-07-30T04:22:35;7.20;;;2.17;;
80199;SDS011;69520;44.900;-0.764;2023-07-30T04:25:01;7.60;;;1.98;;
80199;SDS011;69520;44.900;-0.764;2023-07-30T04:27:27;7.30;;;2.33;;
80199;SDS011;69520;44.900;-0.764;2023-07-30T04:29:53;8.60;;;2.53;;
80199;SDS011;69520;44.900;-0.764;2023-07-30T04:32:19;7.30;;;2.33;;
80199;SDS011;69520;44.900;-0.764;2023-07-30T04:34:45;7.40;;;1.80;;
80199;SDS011;69520;44.900;-0.764;2023-07-30T04:37:11;6.93;;;1.83;;
80199;SDS011;69520;44.900;-0.764;2023-07-30T04:39:37;8.75;;;2.20;;
80199;SDS011;69520;44.900;-0.764;2023-07-30T04:42:03;7.57;;;2.03;;
80199;SDS011;69520;44.900;-0.764;2023-07-30T04:44:30;8.25;;;2.28;;
80199;SDS011;69520;44.900;-0.764;2023-07-30T04:46:56;8.20;;;2.20;;
80199;SDS011;69520;44.900;-0.764;2023-07-30T04:49:22;7.28;;;1.85;;
80199;SDS011;69520;44.900;-0.764;2023-07-30T04:51:48;7.18;;;1.83;;
80199;SDS011;69520;44.900;-0.764;2023-07-30T04:54:14;6.93;;;1.83;;
80199;SDS011;69520;44.900;-0.764;2023-07-30T04:56:40;7.80;;;2.03;;
80199;SDS011;69520;44.900;-0.764;2023-07-30T04:59:06;8.97;;;1.93;;
80199;SDS011;69520;44.900;-0.764;2023-07-30T05:01:32;7.60;;;2.00;;
80199;SDS011;69520;44.900;-0.764;2023-07-30T05:03:58;7.60;;;2.33;;
80199;SDS011;69520;44.900;-0.764;2023-07-30T05:06:24;8.50;;;2.00;;
80199;SDS011;69520;44.900;-0.764;2023-07-30T05:08:50;7.82;;;2.22;;
80199;SDS011;69520;44.900;-0.764;2023-07-30T05:11:16;8.00;;;1.97;;
80199;SDS011;69520;44.900;-0.764;2023-07-30T05:13:42;9.13;;;2.50;;
80199;SDS011;69520;44.900;-0.764;2023-07-30T05:16:08;6.45;;;1.88;;
80199;SDS011;69520;44.900;-0.764;2023-07-30T05:18:34;7.38;;;2.10;;
80199;SDS011;69520;44.900;-0.764;2023-07-30T05:21:00;6.00;;;1.92;;
80199;SDS011;69520;44.900;-0.764;2023-07-30T05:23:26;7.83;;;2.13;;
80199;SDS011;69520;44.900;-0.764;2023-07-30T05:25:52;7.30;;;2.10;;
80199;SDS011;69520;44.900;-0.764;2023-07-30T05:28:18;7.90;;;2.03;;
80199;SDS011;69520;44.900;-0.764;2023-07-30T05:30:44;7.88;;;2.13;;
80199;SDS011;69520;44.900;-0.764;2023-07-30T05:33:10;6.95;;;2.30;;
80199;SDS011;69520;44.900;-0.764;2023-07-30T05:35:36;9.57;;;2.50;;
80199;SDS011;69520;44.900;-0.764;2023-07-30T05:38:02;7.28;;;1.98;;
80199;SDS011;69520;44.900;-0.764;2023-07-30T05:40:28;6.43;;;1.95;;
80199;SDS011;69520;44.900;-0.764;2023-07-30T05:42:54;7.80;;;2.08;;
80199;SDS011;69520;44.900;-0.764;2023-07-30T05:45:20;7.40;;;2.22;;
80199;SDS011;69520;44.900;-0.764;2023-07-30T05:47:46;8.17;;;2.33;;
80199;SDS011;69520;44.900;-0.764;2023-07-30T05:50:12;8.35;;;2.30;;
80199;SDS011;69520;44.900;-0.764;2023-07-30T05:52:38;8.15;;;2.20;;
80199;SDS011;69520;44.900;-0.764;2023-07-30T05:55:05;6.15;;;1.90;;
80199;SDS011;69520;44.900;-0.764;2023-07-30T05:57:31;7.15;;;1.75;;
80199;SDS011;69520;44.900;-0.764;2023-07-30T05:59:57;6.67;;;1.97;;
80199;SDS011;69520;44.900;-0.764;2023-07-30T06:02:23;7.20;;;2.13;;
80199;SDS011;69520;44.900;-0.764;2023-07-30T06:04:49;6.50;;;2.03;;
80199;SDS011;69520;44.900;-0.764;2023-07-30T06:07:15;8.35;;;2.38;;
80199;SDS011;69520;44.900;-0.764;2023-07-30T06:09:41;8.98;;;2.53;;
80199;SDS011;69520;44.900;-0.764;2023-07-30T06:12:07;9.80;;;2.40;;
80199;SDS011;69520;44.900;-0.764;2023-07-30T06:14:33;8.50;;;2.60;;
80199;SDS011;69520;44.900;-0.764;2023-07-30T06:16:59;9.27;;;2.50;;
80199;SDS011;69520;44.900;-0.764;2023-07-30T06:19:25;9.60;;;2.80;;
80199;SDS011;69520;44.900;-0.764;2023-07-30T06:21:51;11.85;;;2.72;;
80199;SDS011;69520;44.900;-0.764;2023-07-30T06:24:17;8.57;;;2.60;;
80199;SDS011;69520;44.900;-0.764;2023-07-30T06:26:43;9.68;;;2.63;;
80199;SDS011;69520;44.900;-0.764;2023-07-30T06:29:09;9.93;;;2.60;;
80199;SDS011;69520;44.900;-0.764;2023-07-30T06:31:35;11.63;;;2.90;;
80199;SDS011;69520;44.900;-0.764;2023-07-30T06:34:01;10.48;;;2.80;;
80199;SDS011;69520;44.900;-0.764;2023-07-30T06:36:28;10.07;;;2.80;;
80199;SDS011;69520;44.900;-0.764;2023-07-30T06:38:54;9.32;;;2.83;;
80199;SDS011;69520;44.900;-0.764;2023-07-30T06:41:20;10.07;;;2.85;;
80199;SDS011;69520;44.900;-0.764;2023-07-30T06:43:46;10.27;;;2.58;;
80199;SDS011;69520;44.900;-0.764;2023-07-30T06:46:12;9.60;;;2.35;;
80199;SDS011;69520;44.900;-0.764;2023-07-30T06:48:38;9.03;;;2.47;;
80199;SDS011;69520;44.900;-0.764;2023-07-30T06:51:09;8.55;;;2.70;;
80199;SDS011;69520;44.900;-0.764;2023-07-30T06:53:37;10.70;;;3.00;;
80199;SDS011;69520;44.900;-0.764;2023-07-30T06:56:03;9.43;;;2.60;;
80199;SDS011;69520;44.900;-0.764;2023-07-30T06:58:30;11.77;;;3.20;;
80199;SDS011;69520;44.900;-0.764;2023-07-30T07:00:56;8.20;;;2.73;;
80199;SDS011;69520;44.900;-0.764;2023-07-30T07:03:22;9.77;;;2.70;;
80199;SDS011;69520;44.900;-0.764;2023-07-30T07:05:54;8.10;;;2.30;;
80199;SDS011;69520;44.900;-0.764;2023-07-30T07:08:21;8.98;;;2.58;;
80199;SDS011;69520;44.900;-0.764;2023-07-30T07:10:47;11.07;;;2.65;;
80199;SDS011;69520;44.900;-0.764;2023-07-30T07:13:13;9.27;;;2.37;;
80199;SDS011;69520;44.900;-0.764;2023-07-30T07:15:43;11.40;;;2.50;;
80199;SDS011;69520;44.900;-0.764;2023-07-30T07:18:09;8.93;;;2.40;;
80199;SDS011;69520;44.900;-0.764;2023-07-30T07:20:35;10.30;;;2.45;;
80199;SDS011;69520;44.900;-0.764;2023-07-30T07:23:02;10.98;;;3.58;;
80199;SDS011;69520;44.900;-0.764;2023-07-30T07:25:28;10.53;;;2.93;;
80199;SDS011;69520;44.900;-0.764;2023-07-30T07:27:54;8.80;;;2.20;;
80199;SDS011;69520;44.900;-0.764;2023-07-30T07:30:20;8.68;;;2.28;;
80199;SDS011;69520;44.900;-0.764;2023-07-30T07:32:46;10.70;;;2.42;;
80199;SDS011;69520;44.900;-0.764;2023-07-30T07:35:16;6.78;;;1.70;;
80199;SDS011;69520;44.900;-0.764;2023-07-30T07:37:42;10.73;;;2.57;;
80199;SDS011;69520;44.900;-0.764;2023-07-30T07:40:08;10.43;;;2.58;;
80199;SDS011;69520;44.900;-0.764;2023-07-30T07:42:35;8.40;;;1.65;;
80199;SDS011;69520;44.900;-0.764;2023-07-30T07:45:01;14.18;;;1.92;;
80199;SDS011;69520;44.900;-0.764;2023-07-30T07:47:27;8.25;;;1.52;;
80199;SDS011;69520;44.900;-0.764;2023-07-30T07:49:53;9.37;;;1.70;;
80199;SDS011;69520;44.900;-0.764;2023-07-30T07:52:19;11.55;;;1.75;;
80199;SDS011;69520;44.900;-0.764;2023-07-30T07:54:45;8.98;;;1.52;;
80199;SDS011;69520;44.900;-0.764;2023-07-30T07:57:12;11.10;;;1.77;;
80199;SDS011;69520;44.900;-0.764;2023-07-30T07:59:38;9.65;;;1.77;;
80199;SDS011;69520;44.900;-0.764;2023-07-30T08:02:06;11.57;;;1.60;;
80199;SDS011;69520;44.900;-0.764;2023-07-30T08:04:32;11.60;;;1.73;;
80199;SDS011;69520;44.900;-0.764;2023-07-30T08:06:58;8.75;;;1.88;;
80199;SDS011;69520;44.900;-0.764;2023-07-30T08:09:28;7.68;;;1.48;;
80199;SDS011;69520;44.900;-0.764;2023-07-30T08:11:54;9.60;;;2.00;;
80199;SDS011;69520;44.900;-0.764;2023-07-30T08:14:20;8.20;;;1.50;;
80199;SDS011;69520;44.900;-0.764;2023-07-30T08:16:46;8.88;;;1.95;;
80199;SDS011;69520;44.900;-0.764;2023-07-30T08:19:12;6.93;;;1.67;;
80199;SDS011;69520;44.900;-0.764;2023-07-30T08:21:38;7.65;;;1.30;;
80199;SDS011;69520;44.900;-0.764;2023-07-30T08:24:04;9.98;;;2.67;;
80199;SDS011;69520;44.900;-0.764;2023-07-30T08:26:31;9.37;;;1.83;;
80199;SDS011;69520;44.900;-0.764;2023-07-30T08:28:57;9.70;;;2.15;;
80199;SDS011;69520;44.900;-0.764;2023-07-30T08:31:23;6.10;;;1.40;;
80199;SDS011;69520;44.900;-0.764;2023-07-30T08:33:50;6.95;;;1.45;;
80199;SDS011;69520;44.900;-0.764;2023-07-30T08:36:16;8.90;;;2.08;;
80199;SDS011;69520;44.900;-0.764;2023-07-30T08:38:42;7.77;;;1.60;;
80199;SDS011;69520;44.900;-0.764;2023-07-30T08:41:08;8.18;;;1.90;;
80199;SDS011;69520;44.900;-0.764;2023-07-30T08:43:34;9.68;;;1.77;;
80199;SDS011;69520;44.900;-0.764;2023-07-30T08:46:00;9.43;;;1.83;;
80199;SDS011;69520;44.900;-0.764;2023-07-30T08:48:27;7.50;;;1.75;;
80199;SDS011;69520;44.900;-0.764;2023-07-30T08:50:56;6.70;;;1.80;;
80199;SDS011;69520;44.900;-0.764;2023-07-30T08:53:24;8.45;;;2.00;;
80199;SDS011;69520;44.900;-0.764;2023-07-30T08:55:51;10.55;;;2.10;;
80199;SDS011;69520;44.900;-0.764;2023-07-30T08:58:18;7.88;;;2.70;;
80199;SDS011;69520;44.900;-0.764;2023-07-30T09:00:44;9.85;;;1.85;;
80199;SDS011;69520;44.900;-0.764;2023-07-30T09:03:11;10.40;;;1.80;;
80199;SDS011;69520;44.900;-0.764;2023-07-30T09:05:38;7.00;;;1.67;;
80199;SDS011;69520;44.900;-0.764;2023-07-30T09:08:04;7.07;;;1.70;;
80199;SDS011;69520;44.900;-0.764;2023-07-30T09:10:30;7.05;;;1.40;;
80199;SDS011;69520;44.900;-0.764;2023-07-30T09:12:56;7.32;;;1.80;;
80199;SDS011;69520;44.900;-0.764;2023-07-30T09:15:33;9.13;;;2.17;;
80199;SDS011;69520;44.900;-0.764;2023-07-30T09:17:59;7.82;;;2.10;;
80199;SDS011;69520;44.900;-0.764;2023-07-30T09:20:26;7.07;;;1.20;;
80199;SDS011;69520;44.900;-0.764;2023-07-30T09:22:52;8.65;;;1.80;;
80199;SDS011;69520;44.900;-0.764;2023-07-30T09:25:18;6.30;;;1.75;;
80199;SDS011;69520;44.900;-0.764;2023-07-30T09:27:49;10.33;;;1.83;;
80199;SDS011;69520;44.900;-0.764;2023-07-30T09:30:15;7.43;;;1.90;;
80199;SDS011;69520;44.900;-0.764;2023-07-30T09:32:50;8.10;;;2.00;;
80199;SDS011;69520;44.900;-0.764;2023-07-30T09:35:16;8.10;;;1.52;;
80199;SDS011;69520;44.900;-0.764;2023-07-30T09:37:43;7.28;;;1.30;;
80199;SDS011;69520;44.900;-0.764;2023-07-30T09:40:10;7.57;;;1.60;;
80199;SDS011;69520;44.900;-0.764;2023-07-30T09:42:38;9.15;;;2.10;;
80199;SDS011;69520;44.900;-0.764;2023-07-30T09:45:08;8.98;;;1.60;;
80199;SDS011;69520;44.900;-0.764;2023-07-30T09:47:36;7.85;;;1.80;;
80199;SDS011;69520;44.900;-0.764;2023-07-30T09:50:02;7.43;;;1.58;;
80199;SDS011;69520;44.900;-0.764;2023-07-30T09:52:29;7.13;;;1.50;;
80199;SDS011;69520;44.900;-0.764;2023-07-30T09:54:57;7.88;;;1.55;;
80199;SDS011;69520;44.900;-0.764;2023-07-30T09:57:24;8.48;;;1.65;;
80199;SDS011;69520;44.900;-0.764;2023-07-30T09:59:50;8.32;;;1.75;;
80199;SDS011;69520;44.900;-0.764;2023-07-30T10:02:18;6.38;;;1.30;;
80199;SDS011;69520;44.900;-0.764;2023-07-30T10:04:46;7.73;;;1.63;;
80199;SDS011;69520;44.900;-0.764;2023-07-30T10:07:18;6.88;;;1.48;;
80199;SDS011;69520;44.900;-0.764;2023-07-30T10:09:45;7.57;;;1.58;;
80199;SDS011;69520;44.900;-0.764;2023-07-30T10:12:13;5.75;;;1.38;;
80199;SDS011;69520;44.900;-0.764;2023-07-30T10:14:41;8.48;;;2.08;;
80199;SDS011;69520;44.900;-0.764;2023-07-30T10:17:09;5.67;;;1.20;;
80199;SDS011;69520;44.900;-0.764;2023-07-30T10:19:35;6.15;;;1.65;;
80199;SDS011;69520;44.900;-0.764;2023-07-30T10:24:42;6.97;;;1.30;;
80199;SDS011;69520;44.900;-0.764;2023-07-30T10:27:24;7.13;;;1.23;;
80199;SDS011;69520;44.900;-0.764;2023-07-30T10:30:07;6.17;;;1.27;;
80199;SDS011;69520;44.900;-0.764;2023-07-30T10:32:40;5.35;;;1.40;;
80199;SDS011;69520;44.900;-0.764;2023-07-30T10:35:07;7.75;;;1.67;;
80199;SDS011;69520;44.900;-0.764;2023-07-30T10:37:33;6.28;;;1.55;;
80199;SDS011;69520;44.900;-0.764;2023-07-30T10:39:59;6.55;;;1.60;;
80199;SDS011;69520;44.900;-0.764;2023-07-30T10:42:35;7.30;;;1.60;;
80199;SDS011;69520;44.900;-0.764;2023-07-30T10:45:01;5.38;;;1.48;;
80199;SDS011;69520;44.900;-0.764;2023-07-30T10:47:27;7.72;;;2.08;;
80199;SDS011;69520;44.900;-0.764;2023-07-30T10:49:53;6.90;;;2.00;;
80199;SDS011;69520;44.900;-0.764;2023-07-30T10:52:24;5.57;;;1.60;;
80199;SDS011;69520;44.900;-0.764;2023-07-30T10:54:59;6.27;;;1.30;;
80199;SDS011;69520;44.900;-0.764;2023-07-30T10:57:29;7.38;;;1.67;;
80199;SDS011;69520;44.900;-0.764;2023-07-30T10:59:56;7.82;;;1.63;;
80199;SDS011;69520;44.900;-0.764;2023-07-30T11:02:22;7.25;;;1.88;;
80199;SDS011;69520;44.900;-0.764;2023-07-30T11:04:48;6.72;;;1.60;;
80199;SDS011;69520;44.900;-0.764;2023-07-30T11:07:18;5.63;;;1.43;;
80199;SDS011;69520;44.900;-0.764;2023-07-30T11:09:44;7.35;;;1.70;;
80199;SDS011;69520;44.900;-0.764;2023-07-30T11:12:10;7.47;;;1.60;;
80199;SDS011;69520;44.900;-0.764;2023-07-30T11:14:36;6.43;;;1.40;;
80199;SDS011;69520;44.900;-0.764;2023-07-30T11:17:03;6.40;;;1.30;;
80199;SDS011;69520;44.900;-0.764;2023-07-30T11:19:29;6.53;;;1.47;;
80199;SDS011;69520;44.900;-0.764;2023-07-30T11:21:56;5.72;;;1.85;;
80199;SDS011;69520;44.900;-0.764;2023-07-30T11:24:22;6.93;;;1.70;;
80199;SDS011;69520;44.900;-0.764;2023-07-30T11:26:59;5.90;;;1.45;;
80199;SDS011;69520;44.900;-0.764;2023-07-30T11:29:26;6.60;;;1.80;;
80199;SDS011;69520;44.900;-0.764;2023-07-30T11:31:52;7.30;;;1.70;;
80199;SDS011;69520;44.900;-0.764;2023-07-30T11:34:21;6.53;;;1.45;;
80199;SDS011;69520;44.900;-0.764;2023-07-30T11:36:47;6.32;;;1.50;;
80199;SDS011;69520;44.900;-0.764;2023-07-30T11:39:13;8.20;;;1.50;;
80199;SDS011;69520;44.900;-0.764;2023-07-30T11:41:39;6.03;;;1.63;;
80199;SDS011;69520;44.900;-0.764;2023-07-30T11:44:05;6.70;;;1.63;;
80199;SDS011;69520;44.900;-0.764;2023-07-30T11:46:31;6.30;;;1.30;;
80199;SDS011;69520;44.900;-0.764;2023-07-30T11:49:14;6.15;;;1.65;;
80199;SDS011;69520;44.900;-0.764;2023-07-30T11:51:41;5.90;;;1.50;;
80199;SDS011;69520;44.900;-0.764;2023-07-30T11:54:07;8.93;;;2.13;;
80199;SDS011;69520;44.900;-0.764;2023-07-30T11:56:34;6.70;;;1.80;;
80199;SDS011;69520;44.900;-0.764;2023-07-30T11:59:01;6.55;;;1.85;;
80199;SDS011;69520;44.900;-0.764;2023-07-30T12:01:29;6.65;;;1.50;;
80199;SDS011;69520;44.900;-0.764;2023-07-30T12:03:56;6.28;;;1.70;;
80199;SDS011;69520;44.900;-0.764;2023-07-30T12:06:22;7.93;;;2.50;;
80199;SDS011;69520;44.900;-0.764;2023-07-30T12:08:48;7.03;;;1.70;;
80199;SDS011;69520;44.900;-0.764;2023-07-30T12:11:14;5.15;;;1.38;;
80199;SDS011;69520;44.900;-0.764;2023-07-30T12:13:43;6.15;;;1.60;;
80199;SDS011;69520;44.900;-0.764;2023-07-30T12:16:10;7.13;;;1.67;;
80199;SDS011;69520;44.900;-0.764;2023-07-30T12:18:37;7.60;;;2.05;;
80199;SDS011;69520;44.900;-0.764;2023-07-30T12:21:05;6.87;;;1.67;;
80199;SDS011;69520;44.900;-0.764;2023-07-30T12:23:32;7.28;;;1.98;;
80199;SDS011;69520;44.900;-0.764;2023-07-30T12:25:59;8.13;;;2.30;;
80199;SDS011;69520;44.900;-0.764;2023-07-30T12:28:25;5.78;;;1.52;;
80199;SDS011;69520;44.900;-0.764;2023-07-30T12:30:51;5.68;;;1.55;;
80199;SDS011;69520;44.900;-0.764;2023-07-30T12:33:17;6.50;;;1.77;;
80199;SDS011;69520;44.900;-0.764;2023-07-30T12:35:43;4.90;;;1.40;;
80199;SDS011;69520;44.900;-0.764;2023-07-30T12:38:09;6.65;;;1.80;;
80199;SDS011;69520;44.900;-0.764;2023-07-30T12:40:36;9.07;;;2.00;;
80199;SDS011;69520;44.900;-0.764;2023-07-30T12:43:02;7.15;;;1.90;;
80199;SDS011;69520;44.900;-0.764;2023-07-30T12:45:29;7.33;;;1.63;;
80199;SDS011;69520;44.900;-0.764;2023-07-30T12:47:55;6.43;;;1.63;;
80199;SDS011;69520;44.900;-0.764;2023-07-30T12:50:21;6.63;;;2.05;;
80199;SDS011;69520;44.900;-0.764;2023-07-30T12:52:48;7.28;;;1.67;;
80199;SDS011;69520;44.900;-0.764;2023-07-30T12:55:15;7.32;;;2.45;;
80199;SDS011;69520;44.900;-0.764;2023-07-30T12:57:41;7.00;;;1.93;;
80199;SDS011;69520;44.900;-0.764;2023-07-30T13:00:07;7.63;;;2.10;;
80199;SDS011;69520;44.900;-0.764;2023-07-30T13:02:34;6.43;;;1.77;;
80199;SDS011;69520;44.900;-0.764;2023-07-30T13:05:01;4.78;;;1.45;;
80199;SDS011;69520;44.900;-0.764;2023-07-30T13:07:28;8.52;;;1.83;;
80199;SDS011;69520;44.900;-0.764;2023-07-30T13:12:30;8.00;;;2.20;;
80199;SDS011;69520;44.900;-0.764;2023-07-30T13:14:56;6.70;;;1.80;;
80199;SDS011;69520;44.900;-0.764;2023-07-30T13:17:22;8.30;;;2.00;;
80199;SDS011;69520;44.900;-0.764;2023-07-30T13:19:48;7.57;;;1.92;;
80199;SDS011;69520;44.900;-0.764;2023-07-30T13:22:14;7.57;;;1.80;;
80199;SDS011;69520;44.900;-0.764;2023-07-30T13:24:40;7.05;;;1.80;;
80199;SDS011;69520;44.900;-0.764;2023-07-30T13:27:06;6.65;;;1.60;;
80199;SDS011;69520;44.900;-0.764;2023-07-30T13:29:32;8.00;;;1.63;;
80199;SDS011;69520;44.900;-0.764;2023-07-30T13:31:58;6.75;;;1.60;;
80199;SDS011;69520;44.900;-0.764;2023-07-30T13:34:24;5.73;;;1.80;;
80199;SDS011;69520;44.900;-0.764;2023-07-30T13:36:50;7.90;;;1.60;;
80199;SDS011;69520;44.900;-0.764;2023-07-30T13:39:16;6.15;;;1.60;;
80199;SDS011;69520;44.900;-0.764;2023-07-30T13:41:42;6.13;;;1.90;;
80199;SDS011;69520;44.900;-0.764;2023-07-30T13:44:08;5.88;;;1.50;;
80199;SDS011;69520;44.900;-0.764;2023-07-30T13:46:36;6.87;;;1.70;;
80199;SDS011;69520;44.900;-0.764;2023-07-30T13:49:02;6.60;;;1.58;;
80199;SDS011;69520;44.900;-0.764;2023-07-30T13:51:28;6.90;;;1.52;;
80199;SDS011;69520;44.900;-0.764;2023-07-30T13:53:57;6.72;;;1.70;;
80199;SDS011;69520;44.900;-0.764;2023-07-30T13:56:24;6.10;;;1.60;;
80199;SDS011;69520;44.900;-0.764;2023-07-30T13:58:50;5.63;;;1.30;;
80199;SDS011;69520;44.900;-0.764;2023-07-30T14:01:16;5.70;;;1.50;;
80199;SDS011;69520;44.900;-0.764;2023-07-30T14:03:43;5.20;;;1.70;;
80199;SDS011;69520;44.900;-0.764;2023-07-30T14:06:09;7.22;;;1.73;;
80199;SDS011;69520;44.900;-0.764;2023-07-30T14:08:35;7.90;;;1.77;;
80199;SDS011;69520;44.900;-0.764;2023-07-30T14:11:01;6.40;;;1.70;;
80199;SDS011;69520;44.900;-0.764;2023-07-30T14:13:28;5.70;;;1.85;;
80199;SDS011;69520;44.900;-0.764;2023-07-30T14:15:54;7.50;;;2.33;;
80199;SDS011;69520;44.900;-0.764;2023-07-30T14:18:20;8.18;;;2.00;;
80199;SDS011;69520;44.900;-0.764;2023-07-30T14:20:46;6.38;;;1.80;;
80199;SDS011;69520;44.900;-0.764;2023-07-30T14:23:12;7.73;;;1.90;;
80199;SDS011;69520;44.900;-0.764;2023-07-30T14:25:39;9.43;;;1.90;;
80199;SDS011;69520;44.900;-0.764;2023-07-30T14:28:05;7.57;;;2.00;;
80199;SDS011;69520;44.900;-0.764;2023-07-30T14:30:31;6.55;;;1.95;;
80199;SDS011;69520;44.900;-0.764;2023-07-30T14:32:57;8.15;;;2.10;;
80199;SDS011;69520;44.900;-0.764;2023-07-30T14:35:23;6.00;;;1.83;;